Time;durP1;ratioP1;P1;durP2;ratioP2;P2;SDS_P1;SDS_P2;PMS_P1;PMS_P2;Temp;Humidity;BMP_temperature;BMP_pressure;BME280_temperature;BME280_humidity;BME280_pressure;Samples;Min_cycle;Max_cycle;Signal;HPM_P1;HPM_P2
2022/11/12 00:01:56;;;;;;;45.45;17.55;;;;;;;5.99;78.31;102838.92;1730616;82;25856;-61
2022/11/12 00:04:42;;;;;;;44.23;17.62;;;;;;;6.04;78.23;102840.09;1733651;82;26088;-60
2022/11/12 00:07:27;;;;;;;25.08;17.73;;;;;;;6.06;78.24;102835.09;1735524;82;27473;-60
2022/11/12 00:10:13;;;;;;;35.38;18.52;;;;;;;6.04;78.13;102827.59;1734713;82;25751;-61
2022/11/12 00:12:59;;;;;;;28.87;17.85;;;;;;;6.03;78.18;102828.52;1735595;82;25665;-61
2022/11/12 00:15:46;;;;;;;32.08;19.12;;;;;;;6.01;78.10;102818.34;1735657;82;25943;-61
2022/11/12 00:18:32;;;;;;;27.50;16.02;;;;;;;5.99;78.14;102817.95;1725362;82;25515;-61
2022/11/12 00:21:18;;;;;;;30.05;15.98;;;;;;;6.00;78.34;102827.75;1759806;80;27585;-61
2022/11/12 00:24:05;;;;;;;29.87;16.77;;;;;;;6.01;78.42;102823.68;1724122;83;25695;-61
2022/11/12 00:26:50;;;;;;;27.50;16.65;;;;;;;6.04;78.51;102832.08;1730644;81;25693;-60
2022/11/12 00:29:35;;;;;;;31.33;16.90;;;;;;;6.05;78.50;102837.35;1750082;82;25885;-60
2022/11/12 00:32:20;;;;;;;24.63;16.45;;;;;;;6.08;78.62;102835.91;1746268;81;26089;-60
2022/11/12 00:35:07;;;;;;;29.20;17.65;;;;;;;6.10;78.63;102839.86;1724344;83;27031;-61
2022/11/12 00:37:55;;;;;;;30.48;17.55;;;;;;;6.14;78.72;102837.46;1724252;83;25774;-60
2022/11/12 00:40:41;;;;;;;27.60;16.73;;;;;;;6.15;78.57;102837.88;1730085;81;25456;-60
2022/11/12 00:43:27;;;;;;;29.63;15.53;;;;;;;6.17;78.57;102834.69;1750123;82;25803;-61
2022/11/12 00:46:13;;;;;;;28.92;17.60;;;;;;;6.17;78.39;102835.16;1750074;82;27226;-61
2022/11/12 00:48:58;;;;;;;27.40;16.57;;;;;;;6.14;78.32;102837.46;1749945;82;27491;-61
2022/11/12 00:51:43;;;;;;;27.27;16.90;;;;;;;6.09;78.32;102840.33;1749834;81;25790;-61
2022/11/12 00:54:28;;;;;;;32.53;16.95;;;;;;;6.08;78.40;102845.71;1777642;80;25807;-60
2022/11/12 00:57:14;;;;;;;23.00;16.02;;;;;;;6.07;78.50;102852.88;1786175;80;25761;-61
2022/11/12 00:59:59;;;;;;;25.77;15.83;;;;;;;6.10;78.59;102854.55;1785950;80;26486;-61
2022/11/12 01:02:45;;;;;;;32.55;18.73;;;;;;;6.09;78.67;102855.03;1724578;81;28447;-61
2022/11/12 01:05:33;;;;;;;25.68;15.18;;;;;;;6.13;78.97;102857.57;1691577;84;25683;-61
2022/11/12 01:08:19;;;;;;;24.18;16.10;;;;;;;6.15;79.05;102852.58;1743836;81;26523;-61
2022/11/12 01:11:12;;;;;;;23.25;15.98;;;;;;;6.17;79.06;102854.73;1754324;81;25787;-61
2022/11/12 01:14:01;;;;;;;20.82;14.25;;;;;;;6.16;78.86;102846.30;1737871;81;25831;-61
2022/11/12 01:16:46;;;;;;;21.73;14.70;;;;;;;6.17;78.85;102854.73;1739209;81;27497;-61
2022/11/12 01:19:31;;;;;;;25.35;13.98;;;;;;;6.15;78.63;102853.05;1726371;82;25941;-61
2022/11/12 01:22:17;;;;;;;25.12;13.28;;;;;;;6.13;78.40;102858.46;1714634;82;25629;-61
2022/11/12 01:25:06;;;;;;;19.92;14.10;;;;;;;6.11;78.50;102854.48;1707799;83;26218;-61
2022/11/12 01:27:52;;;;;;;20.08;14.00;;;;;;;6.08;78.44;102839.92;1713852;82;25772;-61
2022/11/12 01:30:37;;;;;;;20.68;14.70;;;;;;;6.08;78.40;102839.03;1714453;82;27574;-61
2022/11/12 01:33:22;;;;;;;25.48;14.87;;;;;;;6.05;78.31;102840.50;1710407;82;25831;-61
2022/11/12 01:36:08;;;;;;;29.30;13.65;;;;;;;6.04;78.33;102841.42;1708217;82;25724;-61
2022/11/12 01:38:55;;;;;;;26.33;14.38;;;;;;;6.00;77.95;102848.69;1718685;82;25860;-61
2022/11/12 01:41:42;;;;;;;21.52;14.47;;;;;;;5.93;77.72;102844.42;1720540;82;25816;-61
2022/11/12 01:44:31;;;;;;;29.63;14.13;;;;;;;5.85;77.60;102843.83;1716054;82;27551;-61
2022/11/12 01:47:24;;;;;;;32.60;15.88;;;;;;;5.77;77.45;102843.64;1711443;82;25686;-61
2022/11/12 01:50:20;;;;;;;23.80;14.53;;;;;;;5.72;77.81;102836.27;1710487;82;25665;-61
2022/11/12 01:53:09;;;;;;;33.67;15.70;;;;;;;5.64;77.81;102839.20;1714570;82;25859;-61
2022/11/12 01:55:55;;;;;;;32.70;14.80;;;;;;;5.58;77.67;102841.20;1715427;82;25657;-61
2022/11/12 01:58:43;;;;;;;34.10;14.80;;;;;;;5.48;77.49;102849.52;1714880;82;27647;-62
2022/11/12 02:01:28;;;;;;;23.35;15.25;;;;;;;5.39;77.51;102843.16;1714522;82;26318;-61
2022/11/12 02:04:14;;;;;;;28.47;15.85;;;;;;;5.33;77.61;102841.55;1714789;82;25853;-61
2022/11/12 02:06:59;;;;;;;30.72;14.78;;;;;;;5.31;77.79;102839.87;1711694;82;26592;-61
2022/11/12 02:09:45;;;;;;;49.55;16.73;;;;;;;5.28;77.88;102837.33;1712138;82;25775;-61
2022/11/12 02:15:35;;;;;;;29.05;16.82;;;;;;;5.21;78.22;102834.42;1718722;82;25767;-61
2022/11/12 02:18:21;;;;;;;23.60;16.17;;;;;;;5.17;78.08;102848.33;1717493;82;25736;-61
2022/11/12 02:21:09;;;;;;;36.17;17.32;;;;;;;5.16;78.20;102837.23;1734992;81;25778;-61
2022/11/12 02:24:01;;;;;;;29.27;15.48;;;;;;;5.18;78.52;102842.07;1737257;81;25696;-61
2022/11/12 02:26:50;;;;;;;25.08;16.02;;;;;;;5.18;78.96;102846.08;1739002;81;27537;-61
2022/11/12 02:29:35;;;;;;;27.87;15.13;;;;;;;5.18;79.12;102847.41;1739636;81;25814;-61
2022/11/12 02:32:20;;;;;;;22.77;15.72;;;;;;;5.23;79.22;102848.15;1738971;81;25665;-61
2022/11/12 02:35:07;;;;;;;20.37;14.78;;;;;;;5.25;79.44;102842.27;1741220;81;25834;-62
2022/11/12 02:37:52;;;;;;;25.00;15.18;;;;;;;5.29;79.37;102842.59;1735589;81;27213;-61
2022/11/12 02:40:37;;;;;;;21.73;14.75;;;;;;;5.33;79.71;102851.38;1740372;81;27478;-61
2022/11/12 02:43:22;;;;;;;24.45;14.70;;;;;;;5.37;79.58;102849.47;1740589;81;26596;-61
2022/11/12 02:46:07;;;;;;;23.65;13.00;;;;;;;5.40;79.80;102850.72;1735365;81;25708;-61
2022/11/12 02:48:52;;;;;;;18.45;13.62;;;;;;;5.43;79.75;102850.59;1738486;81;25786;-60
2022/11/12 02:51:38;;;;;;;23.35;14.58;;;;;;;5.44;79.76;102848.34;1741507;81;25668;-61
2022/11/12 02:54:23;;;;;;;29.92;14.45;;;;;;;5.39;79.51;102845.82;1734518;80;27809;-61
2022/11/12 02:57:08;;;;;;;22.15;14.55;;;;;;;5.38;79.76;102846.74;1739826;81;25755;-60
2022/11/12 02:59:54;;;;;;;22.58;13.30;;;;;;;5.42;79.86;102853.73;1730195;81;25768;-61
2022/11/12 03:02:41;;;;;;;20.97;13.75;;;;;;;5.44;79.78;102845.67;1742537;81;26779;-60
2022/11/12 03:05:30;;;;;;;19.98;14.73;;;;;;;5.49;79.92;102847.27;1736553;81;25850;-61
2022/11/12 03:08:15;;;;;;;21.20;12.85;;;;;;;5.51;79.84;102851.69;1740160;81;27552;-60
2022/11/12 03:11:13;;;;;;;28.55;14.45;;;;;;;5.56;80.00;102852.41;1740346;81;25844;-61
2022/11/12 03:13:58;;;;;;;21.82;13.40;;;;;;;5.58;79.96;102850.09;1730173;81;25752;-61
2022/11/12 03:16:43;;;;;;;23.55;14.53;;;;;;;5.64;79.99;102851.21;1736214;81;25749;-61
2022/11/12 03:19:29;;;;;;;31.20;13.32;;;;;;;5.68;79.86;102848.45;1738336;81;25874;-61
2022/11/12 03:25:07;;;;;;;26.95;14.35;;;;;;;5.63;79.28;102854.80;1736776;80;25850;-61
2022/11/12 03:28:02;;;;;;;20.20;13.38;;;;;;;5.65;79.48;102856.08;1739686;81;25762;-61
2022/11/12 03:30:48;;;;;;;23.40;14.10;;;;;;;5.66;79.42;102850.30;1737773;81;25869;-61
2022/11/12 03:33:33;;;;;;;22.55;14.00;;;;;;;5.67;79.58;102859.57;1739508;81;25698;-61
2022/11/12 03:36:18;;;;;;;31.50;13.22;;;;;;;5.70;79.64;102860.81;1742312;81;27531;-61
2022/11/12 03:39:03;;;;;;;28.30;13.85;;;;;;;5.76;79.93;102861.92;1735521;81;26161;-61
2022/11/12 03:41:48;;;;;;;26.15;12.88;;;;;;;5.82;80.00;102858.66;1738437;81;25438;-61
2022/11/12 03:44:34;;;;;;;24.80;14.43;;;;;;;5.84;79.60;102859.00;1734836;81;25823;-61
2022/11/12 03:47:19;;;;;;;25.52;14.68;;;;;;;5.81;79.42;102856.42;1742033;81;25766;-61
2022/11/12 03:50:06;;;;;;;27.98;14.98;;;;;;;5.82;79.47;102858.66;1736552;81;27526;-61
2022/11/12 03:52:54;;;;;;;23.42;13.43;;;;;;;5.80;79.46;102854.23;1741358;81;26063;-61
2022/11/12 03:55:39;;;;;;;18.82;13.38;;;;;;;5.77;79.35;102857.00;1742476;81;25625;-60
2022/11/12 03:58:25;;;;;;;24.18;13.53;;;;;;;5.78;79.53;102855.22;1735382;81;25806;-61
2022/11/12 04:01:10;;;;;;;23.27;13.95;;;;;;;5.78;79.51;102855.22;1739065;81;25487;-61
2022/11/12 04:03:56;;;;;;;62.88;13.40;;;;;;;5.78;79.20;102860.56;1738725;81;27528;-62
2022/11/12 04:09:45;;;;;;;37.88;13.00;;;;;;;5.71;79.12;102864.34;1736849;81;25767;-61
2022/11/12 04:15:34;;;;;;;58.65;14.65;;;;;;;5.60;78.99;102861.57;1738875;81;26094;-61
2022/11/12 04:27:41;;;;;;;87.27;14.85;;;;;;;5.35;78.68;102874.89;1728390;82;25792;-60
2022/11/12 04:30:26;;;;;;;107.45;16.02;;;;;;;5.26;78.73;102870.71;1732364;81;25785;-60
2022/11/12 04:33:11;;;;;;;110.03;18.73;;;;;;;5.24;78.91;102879.70;1712834;82;27474;-60
2022/11/12 04:35:57;;;;;;;70.17;15.30;;;;;;;5.18;79.08;102870.09;1726325;81;25754;-61
2022/11/12 04:38:42;;;;;;;53.23;16.07;;;;;;;5.13;79.27;102869.38;1717875;81;25745;-61
2022/11/12 04:47:40;;;;;;;24.25;14.73;;;;;;;5.06;79.57;102867.36;1710336;82;27526;-61
2022/11/12 04:50:25;;;;;;;22.07;14.68;;;;;;;5.06;79.70;102871.84;1725828;82;25787;-60
2022/11/12 04:53:10;;;;;;;21.52;13.90;;;;;;;5.06;80.00;102866.02;1719893;82;25745;-61
2022/11/12 04:55:58;;;;;;;27.25;13.95;;;;;;;5.12;80.19;102868.96;1722908;82;25968;-61
2022/11/12 04:58:43;;;;;;;30.17;15.20;;;;;;;5.14;80.43;102869.80;1729992;81;25789;-61
2022/11/12 05:01:29;;;;;;;23.98;14.18;;;;;;;5.17;80.45;102873.23;1725733;81;27531;-62
2022/11/12 05:04:14;;;;;;;22.40;13.83;;;;;;;5.21;80.57;102871.34;1721843;82;26441;-61
2022/11/12 05:07:00;;;;;;;21.45;13.08;;;;;;;5.25;80.80;102872.11;1721866;82;25721;-61
2022/11/12 05:09:45;;;;;;;21.12;13.65;;;;;;;5.27;80.67;102875.13;1703778;82;25853;-61
2022/11/12 05:12:30;;;;;;;20.17;13.28;;;;;;;5.29;80.60;102882.63;1706403;83;25853;-61
2022/11/12 05:15:17;;;;;;;17.37;13.10;;;;;;;5.33;80.64;102882.06;1707723;82;28299;-61
2022/11/12 05:18:03;;;;;;;18.67;11.40;;;;;;;5.33;80.31;102886.93;1726839;82;25741;-61
2022/11/12 05:20:50;;;;;;;20.57;12.63;;;;;;;5.36;80.42;102885.98;1722549;81;25913;-61
2022/11/12 05:23:36;;;;;;;20.80;13.60;;;;;;;5.40;80.43;102889.42;1733184;82;25727;-61
2022/11/12 05:26:21;;;;;;;20.12;12.85;;;;;;;5.45;80.43;102888.80;1730134;81;25754;-61
2022/11/12 05:29:06;;;;;;;20.68;12.53;;;;;;;5.52;80.52;102890.81;1731787;82;27492;-61
2022/11/12 05:31:51;;;;;;;22.55;14.25;;;;;;;5.57;80.51;102887.06;1714024;83;25831;-61
2022/11/12 05:34:36;;;;;;;29.98;15.20;;;;;;;5.63;80.47;102884.66;1722464;82;25756;-61
2022/11/12 05:37:22;;;;;;;36.83;16.32;;;;;;;5.69;80.44;102892.45;1720506;81;25818;-61
2022/11/12 05:40:08;;;;;;;36.25;16.50;;;;;;;5.72;80.19;102893.69;1714255;82;25870;-61
2022/11/12 05:42:53;;;;;;;43.00;20.30;;;;;;;5.67;79.96;102894.29;1714002;83;27571;-61
2022/11/12 05:45:43;;;;;;;32.30;15.58;;;;;;;5.64;79.88;102901.95;1714469;82;25449;-61
2022/11/12 05:48:29;;;;;;;57.62;25.82;;;;;;;5.63;79.81;102899.34;1743689;82;25820;-61
2022/11/12 05:51:14;;;;;;;27.77;15.98;;;;;;;5.57;79.37;102906.20;1743649;82;25931;-60
2022/11/12 05:54:01;;;;;;;32.33;15.78;;;;;;;5.54;79.61;102899.64;1726678;82;27360;-61
2022/11/12 05:56:46;;;;;;;32.42;16.30;;;;;;;5.59;80.03;102905.69;1728212;81;27563;-60
2022/11/12 05:59:32;;;;;;;28.67;15.20;;;;;;;5.63;80.10;102908.20;1742212;81;25902;-60
2022/11/12 06:02:17;;;;;;;22.80;12.88;;;;;;;5.68;79.95;102912.53;1742127;82;25810;-60
2022/11/12 06:05:04;;;;;;;41.00;15.58;;;;;;;5.63;79.51;102916.22;1744318;81;25871;-60
2022/11/12 06:07:49;;;;;;;37.05;16.95;;;;;;;5.70;80.03;102918.67;1744616;82;25871;-60
2022/11/12 06:10:34;;;;;;;49.25;16.32;;;;;;;5.71;79.94;102917.75;1744748;82;28305;-60
2022/11/12 06:13:22;;;;;;;53.55;18.07;;;;;;;5.76;80.08;102918.49;1743634;81;26033;-60
2022/11/12 06:16:08;;;;;;;89.17;16.05;;;;;;;5.74;79.67;102918.52;1733902;82;25782;-60
2022/11/12 06:18:53;;;;;;;80.60;16.82;;;;;;;5.72;79.41;102929.74;1731662;82;26584;-60
2022/11/12 06:21:39;;;;;;;61.13;18.07;;;;;;;5.69;79.20;102924.97;1732844;82;25780;-62
2022/11/12 06:24:25;;;;;;;83.07;18.07;;;;;;;5.66;79.16;102927.73;1730096;81;27580;-61
2022/11/12 06:27:10;;;;;;;115.67;18.17;;;;;;;5.60;78.98;102928.80;1722846;82;25627;-61
2022/11/12 06:29:55;;;;;;;110.85;17.57;;;;;;;5.52;78.90;102929.52;1743299;82;25734;-60
2022/11/12 06:32:40;;;;;;;66.28;16.95;;;;;;;5.40;78.68;102942.33;1743013;82;25864;-61
2022/11/12 06:35:25;;;;;;;113.28;17.67;;;;;;;5.33;78.85;102940.31;1716216;82;25733;-61
2022/11/12 06:38:11;;;;;;;104.35;17.70;;;;;;;5.30;78.97;102935.09;1713960;83;27508;-61
2022/11/12 06:40:56;;;;;;;42.67;16.52;;;;;;;5.31;79.25;102932.84;1713909;83;25796;-61
2022/11/12 06:43:42;;;;;;;39.23;16.55;;;;;;;5.28;78.97;102934.73;1724015;81;25807;-61
2022/11/12 06:46:27;;;;;;;37.48;16.02;;;;;;;5.32;79.36;102933.70;1706145;83;25790;-60
2022/11/12 06:49:12;;;;;;;30.50;15.85;;;;;;;5.38;79.56;102932.63;1714241;83;26327;-60
2022/11/12 06:51:57;;;;;;;35.08;15.38;;;;;;;5.43;79.47;102926.67;1714131;83;28491;-61
2022/11/12 06:54:42;;;;;;;28.25;15.48;;;;;;;5.49;79.93;102927.83;1737546;81;25621;-61
2022/11/12 06:57:27;;;;;;;22.98;14.70;;;;;;;5.49;79.91;102926.02;1744571;82;25759;-61
2022/11/12 07:00:15;;;;;;;26.27;14.35;;;;;;;5.54;79.89;102925.02;1744712;82;25812;-61
2022/11/12 07:03:09;;;;;;;25.32;14.65;;;;;;;5.59;79.88;102928.39;1740621;82;26098;-61
2022/11/12 07:05:54;;;;;;;35.05;13.95;;;;;;;5.61;79.77;102936.75;1714129;83;27522;-61
2022/11/12 07:08:40;;;;;;;29.60;15.50;;;;;;;5.61;80.02;102934.56;1713622;83;25949;-61
2022/11/12 07:11:25;;;;;;;27.65;15.98;;;;;;;5.69;80.20;102933.84;1713998;83;26420;-61
2022/11/12 07:14:10;;;;;;;32.98;15.75;;;;;;;5.81;79.95;102939.23;1732035;81;25835;-60
2022/11/12 07:16:55;;;;;;;31.52;14.90;;;;;;;5.86;79.81;102943.08;1744632;82;26399;-60
2022/11/12 07:19:41;;;;;;;26.10;15.32;;;;;;;5.94;79.94;102948.59;1717422;82;28338;-61
2022/11/12 07:22:27;;;;;;;25.23;14.18;;;;;;;6.05;79.87;102952.73;1737133;81;26620;-62
2022/11/12 07:25:13;;;;;;;25.72;14.03;;;;;;;6.15;79.91;102950.12;1717466;82;25461;-62
2022/11/12 07:27:57;;;;;;;26.77;14.33;;;;;;;6.30;80.08;102950.05;1703876;83;25786;-62
2022/11/12 07:30:42;;;;;;;38.48;15.38;;;;;;;6.44;79.92;102948.22;1717354;81;25749;-62
2022/11/12 07:33:29;;;;;;;22.50;13.38;;;;;;;6.51;79.51;102954.22;1725072;81;27483;-62
2022/11/12 07:36:18;;;;;;;38.00;15.00;;;;;;;6.56;79.38;102954.47;1719105;81;25853;-60
2022/11/12 07:39:03;;;;;;;38.05;21.87;;;;;;;6.61;78.99;102946.27;1720073;81;25821;-60
2022/11/12 07:41:50;;;;;;;41.28;24.60;;;;;;;6.64;78.67;102958.66;1726110;81;25847;-60
2022/11/12 07:44:35;;;;;;;62.78;25.02;;;;;;;6.77;79.02;102964.42;1734692;82;26101;-60
2022/11/12 07:47:20;;;;;;;39.58;23.73;;;;;;;6.80;78.32;102958.48;1713613;83;28462;-61
2022/11/12 07:50:07;;;;;;;41.55;16.45;;;;;;;6.81;78.51;102963.39;1725796;81;26395;-60
2022/11/12 07:52:51;;;;;;;30.40;15.48;;;;;;;6.80;78.07;102955.80;1739999;81;25513;-61
2022/11/12 07:55:37;;;;;;;35.38;11.95;;;;;;;6.86;78.06;102960.06;1730470;81;26428;-61
2022/11/12 07:58:24;;;;;;;66.60;11.80;;;;;;;6.87;77.67;102959.13;1720698;81;25720;-61
2022/11/12 08:01:24;;;;;;;48.40;11.03;;;;;;;6.82;76.83;102959.30;1721741;81;27490;-60
2022/11/12 08:04:10;;;;;;;73.42;17.82;;;;;;;6.77;76.87;102951.90;1715037;81;25811;-61
2022/11/12 08:06:56;;;;;;;44.13;19.82;;;;;;;6.80;76.73;102949.12;1715377;81;25936;-60
2022/11/12 08:09:41;;;;;;;94.87;30.45;;;;;;;6.79;76.55;102948.70;1712480;81;25844;-61
2022/11/12 08:12:26;;;;;;;95.97;35.08;;;;;;;6.85;76.82;102949.84;1711706;82;25795;-60
2022/11/12 08:15:11;;;;;;;74.20;29.63;;;;;;;6.89;76.26;102952.78;1693150;83;27061;-61
2022/11/12 08:17:56;;;;;;;56.65;26.85;;;;;;;6.93;76.34;102946.84;1712411;82;25808;-61
2022/11/12 08:20:42;;;;;;;49.00;22.87;;;;;;;7.05;76.59;102945.50;1720630;82;25831;-61
2022/11/12 08:23:29;;;;;;;57.33;25.48;;;;;;;7.14;76.46;102949.16;1741410;82;26561;-61
2022/11/12 08:26:17;;;;;;;63.73;28.23;;;;;;;7.26;76.75;102951.81;1742568;82;25730;-60
2022/11/12 08:29:04;;;;;;;130.50;46.10;;;;;;;7.36;76.90;102946.98;1742448;82;27601;-61
2022/11/12 08:31:49;;;;;;;125.60;45.03;;;;;;;7.50;76.87;102953.11;1716411;81;26038;-60
2022/11/12 08:34:35;;;;;;;109.63;43.17;;;;;;;7.58;76.82;102948.77;1732990;81;26422;-61
2022/11/12 08:37:20;;;;;;;88.78;37.98;;;;;;;7.70;76.75;102950.09;1733262;81;25727;-61
2022/11/12 08:40:07;;;;;;;105.85;37.20;;;;;;;7.81;76.70;102954.06;1734845;81;25756;-61
2022/11/12 08:43:09;;;;;;;97.88;36.68;;;;;;;7.84;76.12;102952.57;1728396;81;26759;-61
2022/11/12 08:46:00;;;;;;;96.15;37.88;;;;;;;7.93;75.89;102953.14;1728175;81;26044;-61
2022/11/12 08:48:45;;;;;;;108.03;40.48;;;;;;;8.01;76.15;102947.44;1734339;82;25830;-61
2022/11/12 08:51:30;;;;;;;96.60;36.93;;;;;;;8.17;76.28;102959.72;1725780;81;26028;-61
2022/11/12 08:54:15;;;;;;;105.92;39.98;;;;;;;8.23;75.73;102958.10;1734042;81;25693;-61
2022/11/12 08:57:00;;;;;;;88.22;38.67;;;;;;;8.27;75.13;102954.36;1734034;82;27562;-61
2022/11/12 08:59:45;;;;;;;106.50;45.58;;;;;;;8.25;74.97;102950.87;1733673;81;25788;-61
2022/11/12 09:02:31;;;;;;;116.45;44.23;;;;;;;8.29;75.10;102956.52;1735902;81;25698;-61
2022/11/12 09:05:16;;;;;;;78.20;35.23;;;;;;;8.36;73.86;102959.32;1732729;81;27850;-61
2022/11/12 09:08:08;;;;;;;75.62;27.05;;;;;;;8.30;74.28;102964.48;1730490;82;25752;-61
2022/11/12 09:10:53;;;;;;;57.80;29.00;;;;;;;8.35;74.50;102965.63;1729504;81;27559;-61
2022/11/12 09:13:38;;;;;;;36.95;19.85;;;;;;;8.44;74.96;102958.96;1732325;82;25783;-61
2022/11/12 09:16:23;;;;;;;27.42;15.80;;;;;;;8.57;75.06;102962.00;1744456;82;25741;-61
2022/11/12 09:19:09;;;;;;;34.75;16.15;;;;;;;8.71;75.04;102962.71;1725016;81;25799;-61
2022/11/12 09:21:54;;;;;;;39.73;21.65;;;;;;;8.86;75.19;102957.12;1657404;85;25821;-61
2022/11/12 09:24:39;;;;;;;37.70;21.55;;;;;;;9.02;75.11;102950.08;1724321;83;27489;-60
2022/11/12 09:27:27;;;;;;;48.63;29.25;;;;;;;9.17;74.90;102953.00;1724640;83;25743;-61
2022/11/12 09:30:14;;;;;;;28.62;18.70;;;;;;;9.20;74.35;102960.89;1724453;82;25756;-61
2022/11/12 09:32:59;;;;;;;32.83;16.12;;;;;;;9.23;74.16;102950.87;1724748;83;25850;-60
2022/11/12 09:35:45;;;;;;;20.88;15.90;;;;;;;9.35;74.21;102944.06;1724647;83;25743;-60
2022/11/12 09:38:31;;;;;;;23.30;14.98;;;;;;;9.47;73.99;102947.06;1724604;83;28444;-61
2022/11/12 09:41:39;;;;;;;32.10;15.70;;;;;;;9.57;73.48;102942.13;1724518;83;25833;-61
2022/11/12 09:44:25;;;;;;;49.90;28.40;;;;;;;9.70;74.10;102944.13;1715087;82;25844;-62
2022/11/12 09:47:32;;;;;;;36.68;22.70;;;;;;;9.91;74.55;102946.66;1689760;84;25865;-61
2022/11/12 09:50:34;;;;;;;31.52;19.42;;;;;;;10.01;73.99;102948.41;1712660;82;25788;-62
2022/11/12 09:53:36;;;;;;;43.73;21.42;;;;;;;10.14;73.88;102945.47;1713395;83;27547;-61
2022/11/12 09:56:25;;;;;;;33.78;19.37;;;;;;;10.33;74.12;102936.44;1713560;83;25656;-61
2022/11/12 09:59:13;;;;;;;72.05;33.20;;;;;;;10.48;73.80;102946.89;1713617;83;25811;-62
2022/11/12 10:02:11;;;;;;;50.40;27.82;;;;;;;10.35;71.31;102942.61;1688387;83;25847;-62
2022/11/12 10:05:17;;;;;;;32.00;17.98;;;;;;;10.36;72.56;102939.43;1688869;83;25987;-62
2022/11/12 10:08:19;;;;;;;32.58;18.67;;;;;;;10.49;72.33;102933.84;1688474;84;27498;-61
2022/11/12 10:11:30;;;;;;;41.70;24.27;;;;;;;10.61;72.29;102933.64;1710709;83;25855;-61
2022/11/12 10:14:20;;;;;;;37.88;18.10;;;;;;;10.62;71.04;102934.04;1713437;82;25874;-61
2022/11/12 10:17:38;;;;;;;25.05;17.82;;;;;;;10.52;71.44;102930.10;1709372;83;25810;-62
2022/11/12 10:20:31;;;;;;;28.05;19.92;;;;;;;10.70;71.18;102928.25;1689243;83;26139;-61
2022/11/12 10:23:21;;;;;;;29.92;19.62;;;;;;;10.84;71.40;102925.66;1676337;83;27579;-62
2022/11/12 10:26:14;;;;;;;38.35;21.95;;;;;;;11.01;70.41;102925.19;1707338;82;25958;-61
2022/11/12 10:29:10;;;;;;;42.15;24.95;;;;;;;11.52;70.79;102922.30;1708894;82;25763;-62
2022/11/12 10:31:55;;;;;;;53.15;27.27;;;;;;;11.74;69.27;102915.16;1694106;81;25820;-61
2022/11/12 10:34:40;;;;;;;42.93;24.20;;;;;;;11.82;69.14;102911.52;1697657;83;25808;-61
2022/11/12 10:37:47;;;;;;;43.33;20.20;;;;;;;12.03;69.36;102902.64;1702454;82;27546;-61
2022/11/12 10:40:37;;;;;;;30.80;17.67;;;;;;;12.37;68.06;102903.75;1698471;82;25832;-61
2022/11/12 10:43:24;;;;;;;30.00;16.37;;;;;;;12.60;67.37;102900.07;1711445;82;25775;-61
2022/11/12 10:46:20;;;;;;;24.07;15.78;;;;;;;12.66;67.28;102891.11;1707429;82;25762;-61
2022/11/12 10:49:16;;;;;;;27.00;16.93;;;;;;;12.91;66.05;102888.17;1706986;82;25797;-61
2022/11/12 10:52:02;;;;;;;33.67;18.48;;;;;;;13.03;66.61;102886.99;1707013;82;27582;-61
2022/11/12 10:54:47;;;;;;;30.35;19.07;;;;;;;13.10;65.06;102879.75;1710273;82;25883;-61
2022/11/12 10:57:32;;;;;;;33.85;18.95;;;;;;;13.08;64.92;102885.73;1687871;82;25663;-61
2022/11/12 11:00:20;;;;;;;37.45;21.62;;;;;;;13.12;64.58;102876.93;1684976;82;26466;-61
2022/11/12 11:03:19;;;;;;;30.10;20.25;;;;;;;13.37;64.64;102873.94;1717413;82;25770;-61
2022/11/12 11:06:15;;;;;;;60.83;35.98;;;;;;;13.80;64.44;102870.19;1737638;82;27538;-61
2022/11/12 11:09:19;;;;;;;82.90;46.95;;;;;;;14.29;62.83;102872.18;1743099;82;25866;-61
2022/11/12 11:12:09;;;;;;;79.90;51.73;;;;;;;14.70;62.77;102868.34;1743298;82;25822;-62
2022/11/12 11:15:21;;;;;;;84.70;49.58;;;;;;;15.48;61.63;102866.20;1743307;82;25860;-62
2022/11/12 11:18:11;;;;;;;100.10;60.28;;;;;;;16.17;61.77;102865.02;1728802;82;25939;-62
2022/11/12 11:21:50;;;;;;;98.40;60.28;;;;;;;16.53;60.53;102863.05;1684637;84;27489;-61
2022/11/12 11:25:02;;;;;;;55.45;28.50;;;;;;;17.02;60.22;102866.34;1706443;82;26463;-61
2022/11/12 11:28:02;;;;;;;23.60;17.05;;;;;;;17.44;57.19;102865.59;1706604;84;25802;-62
2022/11/12 11:31:01;;;;;;;26.93;18.57;;;;;;;17.38;57.04;102866.12;1704341;84;25849;-62
2022/11/12 11:33:51;;;;;;;44.08;29.12;;;;;;;17.32;56.17;102871.58;1706732;83;25761;-62
2022/11/12 11:37:05;;;;;;;64.62;38.55;;;;;;;17.11;56.29;102868.30;1706459;83;27534;-62
2022/11/12 11:40:13;;;;;;;30.68;21.48;;;;;;;16.97;55.93;102859.93;1706527;83;25797;-62
2022/11/12 11:43:18;;;;;;;38.95;23.15;;;;;;;16.76;55.96;102862.54;1706701;84;25836;-61
2022/11/12 11:46:14;;;;;;;22.45;15.95;;;;;;;16.83;57.07;102871.91;1706654;83;25843;-61
2022/11/12 11:49:14;;;;;;;34.63;17.48;;;;;;;16.81;55.78;102855.37;1706767;84;25726;-62
2022/11/12 11:52:13;;;;;;;27.55;19.00;;;;;;;16.80;56.84;102856.36;1706664;83;27567;-61
2022/11/12 11:55:30;;;;;;;31.45;20.25;;;;;;;16.81;56.29;102848.06;1706544;84;25776;-61
2022/11/12 11:58:38;;;;;;;30.55;18.90;;;;;;;16.53;54.76;102855.78;1706541;84;25996;-61
2022/11/12 12:01:46;;;;;;;30.32;17.87;;;;;;;16.40;55.36;102850.96;1709084;82;25788;-62
2022/11/12 12:04:52;;;;;;;29.02;18.45;;;;;;;16.20;55.98;102849.34;1711508;82;25878;-62
2022/11/12 12:07:48;;;;;;;29.85;19.65;;;;;;;16.23;55.76;102846.87;1714380;82;27575;-62
2022/11/12 12:10:54;;;;;;;31.35;19.85;;;;;;;16.22;56.42;102849.25;1713959;82;25813;-63
2022/11/12 12:14:19;;;;;;;40.15;21.75;;;;;;;16.18;56.30;102851.31;1713954;82;26650;-62
2022/11/12 12:17:19;;;;;;;45.58;25.02;;;;;;;16.06;56.90;102846.87;1713541;82;25656;-62
2022/11/12 12:20:15;;;;;;;61.68;33.88;;;;;;;15.98;57.06;102846.63;1710524;82;25848;-62
2022/11/12 12:23:05;;;;;;;83.62;48.28;;;;;;;16.06;57.09;102846.87;1707355;82;27546;-62
2022/11/12 12:25:55;;;;;;;73.35;43.50;;;;;;;15.95;56.46;102845.02;1710424;82;25787;-62
2022/11/12 12:28:48;;;;;;;62.67;39.03;;;;;;;15.82;56.91;102834.23;1712596;82;26461;-61
2022/11/12 12:31:39;;;;;;;77.90;51.48;;;;;;;15.61;56.44;102848.95;1708333;82;27945;-61
2022/11/12 12:34:34;;;;;;;68.72;45.50;;;;;;;15.28;56.95;102843.31;1735922;82;25731;-61
2022/11/12 12:37:40;;;;;;;41.50;27.60;;;;;;;14.91;57.46;102847.43;1735729;82;28317;-62
2022/11/12 12:40:53;;;;;;;91.10;51.15;;;;;;;14.66;57.76;102850.57;1735732;82;25935;-62
2022/11/12 12:43:46;;;;;;;84.83;46.13;;;;;;;14.44;58.36;102848.52;1735518;82;25701;-61
2022/11/12 12:46:48;;;;;;;78.33;40.17;;;;;;;14.24;59.07;102844.08;1735921;82;26583;-62
2022/11/12 12:49:36;;;;;;;60.12;34.30;;;;;;;14.09;59.34;102837.03;1722829;82;25792;-61
2022/11/12 12:52:21;;;;;;;69.50;36.85;;;;;;;13.97;59.90;102835.20;1711546;82;27498;-62
2022/11/12 12:55:24;;;;;;;68.70;41.88;;;;;;;13.85;60.21;102832.88;1710233;82;25848;-61
2022/11/12 12:58:41;;;;;;;129.23;71.42;;;;;;;13.64;60.55;102831.16;1668106;82;26650;-61
2022/11/12 13:01:33;;;;;;;85.90;48.10;;;;;;;13.52;61.15;102826.11;1714305;82;25788;-61
2022/11/12 13:04:49;;;;;;;58.70;32.25;;;;;;;13.39;61.69;102819.32;1725644;82;25725;-61
2022/11/12 13:07:47;;;;;;;50.98;29.82;;;;;;;13.29;62.08;102818.56;1735717;82;27636;-62
2022/11/12 13:10:49;;;;;;;52.98;30.80;;;;;;;13.20;62.27;102810.22;1735647;82;25731;-61
2022/11/12 13:13:37;;;;;;;54.03;32.38;;;;;;;13.11;62.61;102809.87;1735759;82;25743;-61
2022/11/12 13:16:53;;;;;;;69.60;33.08;;;;;;;13.02;62.99;102806.44;1735515;82;25773;-61
2022/11/12 13:19:56;;;;;;;62.33;31.35;;;;;;;12.96;62.97;102794.20;1735555;82;26281;-61
2022/11/12 13:22:48;;;;;;;57.58;28.23;;;;;;;12.98;63.24;102791.38;1735680;82;27519;-61
2022/11/12 13:25:34;;;;;;;47.30;27.10;;;;;;;12.96;63.67;102786.56;1735801;82;25814;-61